Stroud, Oklahoma
Current Conditions -  °F | °C
As of 12:55 PM on Friday 21 Nov 2014 (Local Time) from KCQB Reporting Station
Overcast Overcast  
Wind Chill: 63°   Ceiling: 1300
Heat Index: 63°   Visibility: 10mi
Dew Point: 61°   Wind: 12mph
Humidity: 94%   Direction: 170°S
Pressure: 30.05"   Gusts: 17mph
Location:  35.75°N, 96.66°W
Report Text: KCQB 211855Z AUTO 17010G15KT 10SM OVC013 17/16 A3005 RMK AO2
Loading
Personal Weather Stations






























Interactive Weather Map New forecast layout! Learn more

10-Day Weather Forecast

Advertisements
Track Severe Weather on mobile